Terminal Aerodrome Forecast
Issued by NWS Jackson, MS

Current Version | Previous Version | Text Only | Print | Product List | Glossary On
Versions: 1 2 3 4 5 6 7 8 9 10 11 12
984
FTUS44 KJAN 120534
TAFJAN
TAF
KJAN 120534Z 1206/1306 00000KT P6SM FEW250
     FM121000 00000KT P6SM SCT015
     FM121500 32008KT P6SM FEW250=

USA.gov is the U.S. government's official web portal to all federal, state and local government web resources and services.